Time;durP1;ratioP1;P1;durP2;ratioP2;P2;SDS_P1;SDS_P2;PMS_P1;PMS_P2;Temp;Humidity;BMP_temperature;BMP_pressure;BME280_temperature;BME280_humidity;BME280_pressure;Samples;Min_cycle;Max_cycle;Signal;HPM_P1;HPM_P2
2021/04/11 00:02:51;;;;;;;61.25;45.45;;;20.80;42.10;;;;;;4806805;54;21117;-47
2021/04/11 00:07:52;;;;;;;60.72;45.75;;;20.80;42.10;;;;;;4825316;54;21010;-44
2021/04/11 00:12:53;;;;;;;58.80;45.00;;;20.70;42.00;;;;;;4798249;54;21477;-48
2021/04/11 00:17:54;;;;;;;62.40;47.90;;;20.80;42.10;;;;;;4830357;54;21094;-48
2021/04/11 00:22:55;;;;;;;60.53;47.55;;;20.80;42.00;;;;;;4795548;58;21101;-40
2021/04/11 00:27:57;;;;;;;59.67;45.45;;;20.70;42.00;;;;;;4827233;54;21561;-50
2021/04/11 00:33:00;;;;;;;59.13;44.00;;;20.80;42.00;;;;;;4831656;54;21066;-38
2021/04/11 00:38:04;;;;;;;62.25;46.60;;;20.80;42.00;;;;;;4795548;58;21065;-36
2021/04/11 00:43:09;;;;;;;56.45;44.00;;;20.80;42.00;;;;;;4826094;54;20983;-45
2021/04/11 00:48:11;;;;;;;59.28;46.60;;;20.80;42.00;;;;;;4808997;54;21007;-48
2021/04/11 00:53:12;;;;;;;57.97;44.35;;;20.80;42.00;;;;;;4821394;54;21074;-40
2021/04/11 00:58:13;;;;;;;58.25;43.50;;;20.80;42.00;;;;;;4808708;54;21094;-46
2021/04/11 01:03:22;;;;;;;59.63;43.85;;;20.80;42.00;;;;;;4810255;54;21097;-47
2021/04/11 01:08:27;;;;;;;58.58;45.12;;;20.70;42.00;;;;;;4849972;54;21064;-47
2021/04/11 01:13:31;;;;;;;55.70;44.17;;;20.70;42.00;;;;;;4841336;54;21042;-50
2021/04/11 01:18:32;;;;;;;56.10;42.58;;;20.80;42.00;;;;;;4811303;54;21043;-42
2021/04/11 01:25:22;;;;;;;58.25;43.80;;;20.80;42.00;;;;;;4809391;54;21070;-36
2021/04/11 01:30:30;;;;;;;56.45;42.22;;;20.80;42.00;;;;;;4825249;54;21093;-46
2021/04/11 01:35:31;;;;;;;55.12;41.65;;;20.80;42.00;;;;;;4803480;54;21015;-40
2021/04/11 01:42:04;;;;;;;53.78;41.40;;;20.70;42.00;;;;;;4876629;54;21225;-38
2021/04/11 01:47:06;;;;;;;55.10;42.78;;;20.80;42.00;;;;;;4809688;54;21030;-40
2021/04/11 01:52:15;;;;;;;54.35;41.97;;;20.70;41.90;;;;;;4834147;54;21075;-48
2021/04/11 01:57:26;;;;;;;56.35;41.53;;;20.70;41.90;;;;;;4817024;54;21007;-45
2021/04/11 02:02:26;;;;;;;54.60;41.95;;;20.70;41.90;;;;;;4800727;54;20995;-43
2021/04/11 02:07:28;;;;;;;54.92;41.90;;;20.70;41.90;;;;;;4836968;54;21364;-32
2021/04/11 02:12:28;;;;;;;49.33;38.75;;;20.70;41.90;;;;;;4836612;54;21089;-42
2021/04/11 02:17:30;;;;;;;55.30;41.58;;;20.80;41.90;;;;;;4806676;54;21145;-41
2021/04/11 02:22:32;;;;;;;52.22;40.50;;;20.80;41.90;;;;;;4801522;54;21093;-46
2021/04/11 02:27:33;;;;;;;52.08;39.67;;;20.70;41.90;;;;;;4825743;54;20995;-39
2021/04/11 02:32:34;;;;;;;49.92;39.53;;;20.70;41.90;;;;;;4801603;54;21074;-43
2021/04/11 02:37:37;;;;;;;53.47;40.40;;;20.80;41.90;;;;;;4808120;54;21070;-51
2021/04/11 02:42:38;;;;;;;49.00;39.53;;;20.70;41.80;;;;;;4820783;54;21039;-49
2021/04/11 02:47:39;;;;;;;48.10;37.75;;;20.70;41.90;;;;;;4796397;54;21480;-46
2021/04/11 02:53:05;;;;;;;52.85;40.67;;;20.70;42.00;;;;;;4796530;58;21034;-44
2021/04/11 02:58:06;;;;;;;49.42;37.47;;;20.70;41.90;;;;;;4885354;54;21032;-53
2021/04/11 03:03:07;;;;;;;51.97;39.35;;;20.70;41.90;;;;;;4799282;54;21069;-42
2021/04/11 03:08:11;;;;;;;52.58;38.65;;;20.70;41.80;;;;;;4851151;54;21118;-50
2021/04/11 03:13:13;;;;;;;47.85;36.95;;;20.70;41.80;;;;;;4828359;54;21054;-33
2021/04/11 03:18:14;;;;;;;50.80;37.97;;;20.70;41.80;;;;;;4795774;58;21050;-39
2021/04/11 03:23:19;;;;;;;48.00;37.85;;;20.70;41.80;;;;;;4837073;54;21008;-43
2021/04/11 03:28:34;;;;;;;47.92;37.45;;;20.70;41.80;;;;;;4834772;54;21082;-48
2021/04/11 03:33:39;;;;;;;44.88;35.00;;;20.70;41.80;;;;;;4798878;54;20982;-50
2021/04/11 03:38:41;;;;;;;49.67;36.85;;;20.80;41.90;;;;;;4739639;54;21074;-36
2021/04/11 03:43:54;;;;;;;46.37;36.70;;;20.80;41.90;;;;;;4758431;55;21715;-46
2021/04/11 03:50:32;;;;;;;49.83;36.95;;;20.70;41.80;;;;;;4725118;55;21528;-43
2021/04/11 03:55:38;;;;;;;46.90;35.67;;;20.70;41.80;;;;;;4741139;55;21025;-48
2021/04/11 04:00:56;;;;;;;44.30;33.60;;;20.70;41.80;;;;;;4739507;55;21014;-49
2021/04/11 04:06:08;;;;;;;44.28;34.85;;;20.70;41.80;;;;;;4740601;55;21034;-45
2021/04/11 04:13:14;;;;;;;45.45;35.05;;;20.70;41.80;;;;;;4735738;55;21134;-42
2021/04/11 04:21:28;;;;;;;45.90;36.17;;;20.70;41.80;;;;;;4773626;55;21010;-36
2021/04/11 04:29:14;;;;;;;45.97;35.08;;;20.70;41.80;;;;;;4819383;55;21530;-50
2021/04/11 04:34:52;;;;;;;45.50;33.95;;;20.70;41.80;;;;;;4748354;55;21532;-49
2021/04/11 04:41:13;;;;;;;44.42;34.03;;;20.70;41.80;;;;;;4718232;55;21056;-42
2021/04/11 04:48:09;;;;;;;41.67;32.70;;;20.70;41.70;;;;;;4747231;55;21512;-52
2021/04/11 04:53:28;;;;;;;41.72;33.65;;;20.70;41.70;;;;;;4736963;55;21022;-44
2021/04/11 04:58:35;;;;;;;40.47;31.67;;;20.70;41.80;;;;;;4714805;59;21041;-39
2021/04/11 05:03:40;;;;;;;37.45;29.92;;;20.70;41.80;;;;;;4715982;59;21006;-45
2021/04/11 05:15:38;;;;;;;40.47;31.12;;;20.70;41.70;;;;;;4726724;55;21062;-26
2021/04/11 05:20:43;;;;;;;40.85;31.17;;;20.70;41.90;;;;;;4734228;55;21543;-47
2021/04/11 05:26:08;;;;;;;41.85;32.28;;;20.70;41.70;;;;;;4735299;55;21007;-49
2021/04/11 05:31:15;;;;;;;41.17;32.45;;;20.70;41.70;;;;;;4716607;55;21560;-37
2021/04/11 05:38:08;;;;;;;38.43;30.30;;;20.70;41.70;;;;;;4757834;55;21150;-52
2021/04/11 05:43:17;;;;;;;40.08;30.10;;;20.70;41.70;;;;;;4723118;55;21026;-50
2021/04/11 05:48:36;;;;;;;38.40;29.83;;;20.70;41.70;;;;;;4743688;55;21010;-37
2021/04/11 05:53:51;;;;;;;38.72;29.55;;;20.70;41.70;;;;;;4740306;55;21010;-48
2021/04/11 05:59:09;;;;;;;37.72;29.60;;;20.70;42.20;;;;;;4734367;55;21125;-43
2021/04/11 06:04:15;;;;;;;;;;;20.70;41.70;;;;;;4738938;55;21470;-45
2021/04/11 06:10:13;;;;;;;37.65;29.60;;;20.70;41.60;;;;;;4734037;55;20084;-52
2021/04/11 06:15:32;;;;;;;39.45;29.63;;;20.70;41.60;;;;;;4744111;55;21074;-49
2021/04/11 06:20:33;;;;;;;35.28;28.17;;;20.70;41.60;;;;;;4750277;55;21065;-35
2021/04/11 06:25:54;;;;;;;37.10;29.23;;;20.70;41.60;;;;;;4735456;55;21082;-46
2021/04/11 06:31:03;;;;;;;38.85;29.05;;;20.70;41.60;;;;;;4742743;55;21130;-48
2021/04/11 06:36:19;;;;;;;37.63;28.90;;;20.70;42.20;;;;;;4721697;55;21473;-36
2021/04/11 06:43:08;;;;;;;38.28;29.25;;;20.70;41.60;;;;;;4756198;55;21129;-33
2021/04/11 06:52:41;;;;;;;36.45;28.87;;;20.70;41.60;;;;;;4723858;55;21066;-46
2021/04/11 06:58:32;;;;;;;33.38;27.17;;;20.70;41.70;;;;;;4720884;55;21003;-46
2021/04/11 07:07:07;;;;;;;37.28;28.30;;;20.70;41.60;;;;;;4720459;55;21146;-51
2021/04/11 07:12:34;;;;;;;35.60;27.42;;;20.70;41.60;;;;;;4724470;55;21054;-31
2021/04/11 07:19:56;;;;;;;35.33;27.27;;;20.70;41.60;;;;;;4717767;55;21042;-49
2021/04/11 07:25:35;;;;;;;35.85;27.13;;;20.70;41.50;;;;;;4729063;55;21090;-43
2021/04/11 07:30:57;;;;;;;36.30;28.62;;;20.70;41.60;;;;;;4735224;55;21488;-34
2021/04/11 07:36:35;;;;;;;37.15;27.85;;;20.70;41.50;;;;;;4715723;55;21105;-46
2021/04/11 07:42:47;;;;;;;34.83;27.60;;;20.80;41.60;;;;;;4736758;55;21054;-53
2021/04/11 07:50:43;;;;;;;37.70;29.12;;;20.80;41.70;;;;;;4739988;55;21027;-45
2021/04/11 07:56:37;;;;;;;36.87;29.17;;;20.70;41.60;;;;;;4724952;55;21114;-33
2021/04/11 08:02:16;;;;;;;37.92;29.40;;;20.70;41.50;;;;;;4721793;55;21062;-52
2021/04/11 08:08:36;;;;;;;35.78;27.83;;;20.80;41.60;;;;;;4715609;59;21042;-43
2021/04/11 08:18:12;;;;;;;38.85;30.20;;;20.70;41.50;;;;;;4731809;55;21093;-43
2021/04/11 08:23:50;;;;;;;40.05;30.65;;;20.70;41.60;;;;;;4733370;55;21018;-46
2021/04/11 08:32:50;;;;;;;38.28;29.42;;;20.80;41.60;;;;;;4721193;55;21234;-50
2021/04/11 08:38:31;;;;;;;40.72;30.33;;;20.80;41.60;;;;;;4800858;55;22352;-48
2021/04/11 08:46:26;;;;;;;38.58;30.12;;;20.80;41.60;;;;;;4725372;55;21022;-47
2021/04/11 08:53:07;;;;;;;38.78;29.98;;;20.70;41.60;;;;;;4728932;55;21088;-39
2021/04/11 09:01:18;;;;;;;44.10;32.30;;;20.80;41.60;;;;;;4718724;55;21049;-36
2021/04/11 09:07:05;;;;;;;39.60;30.60;;;20.80;41.70;;;;;;4726669;55;21085;-54
2021/04/11 09:15:11;;;;;;;39.40;30.80;;;20.80;41.60;;;;;;4750841;55;21090;-30
2021/04/11 09:20:22;;;;;;;39.47;30.83;;;20.80;42.00;;;;;;4738963;55;21038;-45
2021/04/11 09:25:31;;;;;;;39.55;30.37;;;20.80;41.70;;;;;;4722027;55;21090;-50
2021/04/11 09:31:13;;;;;;;38.78;30.20;;;20.80;41.70;;;;;;4723797;55;21108;-47
2021/04/11 09:39:12;;;;;;;40.03;30.17;;;20.80;41.70;;;;;;4759531;55;20983;-37
2021/04/11 09:47:42;;;;;;;39.30;30.45;;;20.80;41.70;;;;;;4730510;55;20975;-32
2021/04/11 09:53:50;;;;;;;41.13;31.75;;;20.80;41.80;;;;;;4716549;56;21026;-49
2021/04/11 10:00:31;;;;;;;42.15;31.05;;;20.80;41.70;;;;;;4742614;55;20986;-46
2021/04/11 10:05:59;;;;;;;42.45;32.08;;;20.80;41.70;;;;;;4720309;55;21160;-39
2021/04/11 10:13:26;;;;;;;41.20;32.35;;;20.80;41.80;;;;;;4750709;55;21062;-52
2021/04/11 10:18:58;;;;;;;45.25;32.58;;;20.80;41.70;;;;;;4719213;55;21085;-47
2021/04/11 10:24:38;;;;;;;43.22;32.13;;;20.80;41.80;;;;;;4739397;55;21134;-44
2021/04/11 10:29:43;;;;;;;44.53;31.60;;;20.80;41.80;;;;;;4715427;59;21062;-35
2021/04/11 10:37:34;;;;;;;42.62;33.00;;;20.80;41.80;;;;;;4716134;59;21030;-48
2021/04/11 10:44:24;;;;;;;43.95;34.00;;;20.80;41.80;;;;;;4715327;59;21026;-43
2021/04/11 10:49:41;;;;;;;45.12;34.03;;;20.80;41.90;;;;;;4717561;55;21022;-41
2021/04/11 10:55:20;;;;;;;43.42;34.28;;;20.80;41.80;;;;;;4742079;55;21014;-49
2021/04/11 11:00:41;;;;;;;46.10;35.42;;;20.80;41.80;;;;;;4814278;55;21488;-38
2021/04/11 11:09:15;;;;;;;46.47;35.25;;;20.80;41.80;;;;;;4731204;55;21478;-51
2021/04/11 11:14:42;;;;;;;45.50;36.22;;;20.80;41.80;;;;;;4750340;55;21046;-45
2021/04/11 11:20:49;;;;;;;45.88;34.92;;;20.80;41.80;;;;;;4725612;55;21528;-53
2021/04/11 11:26:11;;;;;;;47.35;35.72;;;20.80;41.90;;;;;;4737725;55;21029;-46
2021/04/11 11:34:28;;;;;;;46.83;37.25;;;20.80;41.90;;;;;;4744252;55;21011;-45
2021/04/11 11:39:51;;;;;;;48.03;37.05;;;20.80;41.90;;;;;;4714445;55;21046;-50
2021/04/11 11:51:48;;;;;;;49.97;37.47;;;20.80;42.00;;;;;;4720469;55;21046;-48
2021/04/11 11:58:24;;;;;;;50.20;38.70;;;20.80;41.90;;;;;;4737486;55;20998;-31
2021/04/11 12:03:34;;;;;;;49.77;39.23;;;20.80;42.00;;;;;;4747301;55;21216;-39
2021/04/11 12:12:18;;;;;;;51.67;38.00;;;20.90;42.00;;;;;;4723290;55;21568;-47
2021/04/11 12:23:56;;;;;;;51.15;39.80;;;20.90;42.00;;;;;;4726171;55;21010;-48
2021/04/11 12:29:09;;;;;;;49.05;37.47;;;20.90;42.00;;;;;;4747188;55;21504;-47
2021/04/11 12:37:25;;;;;;;49.80;38.53;;;20.90;42.00;;;;;;4753392;55;21022;-51
2021/04/11 12:45:26;;;;;;;51.90;39.90;;;20.80;42.00;;;;;;4722289;55;21454;-52
2021/04/11 12:50:39;;;;;;;53.80;40.15;;;20.90;42.00;;;;;;4738399;55;21034;-49
2021/04/11 12:55:56;;;;;;;52.88;42.10;;;20.90;42.00;;;;;;4717890;55;21014;-40
2021/04/11 13:04:33;;;;;;;52.50;41.17;;;20.90;42.10;;;;;;4714991;59;21018;-52
2021/04/11 13:10:07;;;;;;;53.85;39.83;;;20.90;42.10;;;;;;4715677;59;21483;-37
2021/04/11 13:16:56;;;;;;;53.92;41.47;;;20.90;42.10;;;;;;4715140;59;21725;-41
2021/04/11 13:22:36;;;;;;;52.22;41.83;;;20.90;42.10;;;;;;4785625;55;21090;-46
2021/04/11 13:28:00;;;;;;;54.45;42.30;;;20.90;42.10;;;;;;4730908;55;21095;-47
2021/04/11 13:33:20;;;;;;;53.00;42.15;;;20.90;42.10;;;;;;4722418;55;20994;-49
2021/04/11 13:38:39;;;;;;;53.30;42.95;;;20.90;42.10;;;;;;4785317;55;21058;-55
2021/04/11 13:45:07;;;;;;;51.78;41.40;;;20.90;42.20;;;;;;4770646;55;20991;-46
2021/04/11 13:50:34;;;;;;;51.13;41.53;;;20.90;42.20;;;;;;4736210;55;21078;-46
2021/04/11 13:57:46;;;;;;;57.13;42.95;;;20.90;42.20;;;;;;4723960;55;21618;-43
2021/04/11 14:02:49;;;;;;;52.53;43.10;;;20.90;42.20;;;;;;4715564;55;21484;-42
2021/04/11 14:08:17;;;;;;;55.28;44.00;;;20.90;42.20;;;;;;4724440;55;21093;-43
2021/04/11 14:16:03;;;;;;;58.10;43.50;;;20.90;42.20;;;;;;4715829;55;21081;-43
2021/04/11 14:21:25;;;;;;;55.20;42.78;;;20.90;42.20;;;;;;4730440;55;21038;-44
2021/04/11 14:28:04;;;;;;;52.50;42.35;;;20.90;42.20;;;;;;4718194;55;21126;-52
2021/04/11 14:34:28;;;;;;;54.45;43.78;;;20.90;42.20;;;;;;4736905;55;21516;-41
2021/04/11 14:39:36;;;;;;;56.37;43.70;;;20.90;42.20;;;;;;4714426;59;21642;-43
2021/04/11 14:45:00;;;;;;;54.20;43.13;;;20.90;42.20;;;;;;4725202;55;21082;-53
2021/04/11 14:50:11;;;;;;;55.65;43.08;;;20.90;42.20;;;;;;4815912;55;21046;-41
2021/04/11 14:55:16;;;;;;;54.15;43.85;;;20.90;42.20;;;;;;4723196;55;21093;-42
2021/04/11 15:03:24;;;;;;;57.60;44.95;;;20.90;42.20;;;;;;4718488;55;21018;-44
2021/04/11 15:08:50;;;;;;;56.50;44.28;;;20.90;42.20;;;;;;4733896;55;21074;-46
2021/04/11 15:14:03;;;;;;;54.75;41.97;;;20.90;42.20;;;;;;4738535;55;21512;-44
2021/04/11 15:19:57;;;;;;;55.15;42.78;;;20.90;42.30;;;;;;4714771;56;21145;-51
2021/04/11 15:25:08;;;;;;;55.08;43.35;;;20.90;42.20;;;;;;4733913;55;21080;-39
2021/04/11 15:30:19;;;;;;;54.20;42.65;;;20.90;42.20;;;;;;4763135;55;21688;-39
2021/04/11 15:39:02;;;;;;;53.08;43.30;;;20.90;42.30;;;;;;4717069;55;21224;-40
2021/04/11 15:44:22;;;;;;;56.28;43.38;;;20.90;42.20;;;;;;4721747;55;21122;-41
2021/04/11 15:55:07;;;;;;;54.75;44.78;;;20.90;42.20;;;;;;4722394;55;21011;-37
2021/04/11 16:00:20;;;;;;;55.58;42.53;;;20.90;42.30;;;;;;4731016;55;21018;-54
2021/04/11 16:07:10;;;;;;;53.08;42.53;;;20.90;42.20;;;;;;4733207;55;20978;-48
2021/04/11 16:12:38;;;;;;;52.88;43.03;;;20.90;42.20;;;;;;4739355;55;21153;-44
2021/04/11 16:18:15;;;;;;;53.85;43.55;;;20.90;42.30;;;;;;4716694;55;21090;-49
2021/04/11 16:24:53;;;;;;;54.13;42.55;;;20.90;42.20;;;;;;4723378;55;20983;-31
2021/04/11 16:32:04;;;;;;;54.92;42.53;;;20.90;42.20;;;;;;4733454;55;20993;-44
2021/04/11 16:37:33;;;;;;;58.67;43.80;;;20.90;42.20;;;;;;4725214;55;21074;-48
2021/04/11 16:47:00;;;;;;;53.90;43.78;;;20.90;42.20;;;;;;4739133;55;21105;-29
2021/04/11 16:52:09;;;;;;;51.53;41.95;;;20.90;42.20;;;;;;4726133;55;21035;-46
2021/04/11 16:58:46;;;;;;;52.17;42.28;;;20.90;42.20;;;;;;4761608;55;21022;-39
2021/04/11 17:04:05;;;;;;;50.78;40.40;;;20.90;42.20;;;;;;4756426;55;21046;-47
2021/04/11 17:09:12;;;;;;;51.22;41.90;;;20.90;42.20;;;;;;4733641;55;21046;-52
2021/04/11 17:14:50;;;;;;;49.37;40.20;;;20.90;42.20;;;;;;4745851;55;21395;-42
2021/04/11 17:20:18;;;;;;;54.28;41.67;;;20.90;42.20;;;;;;4722452;55;21070;-50
2021/04/11 17:27:02;;;;;;;52.00;42.13;;;20.90;42.20;;;;;;4715760;59;21508;-48
2021/04/11 17:32:17;;;;;;;51.72;41.40;;;20.90;42.20;;;;;;4730642;55;21081;-34
2021/04/11 17:41:54;;;;;;;51.25;41.97;;;20.90;42.20;;;;;;4715619;55;21594;-46
2021/04/11 17:53:50;;;;;;;51.05;42.42;;;20.90;42.20;;;;;;4724028;55;21053;-53
2021/04/11 18:04:06;;;;;;;54.78;43.15;;;20.90;42.20;;;;;;4714825;55;21674;-51
2021/04/11 18:09:28;;;;;;;52.85;42.13;;;20.90;42.20;;;;;;4725551;55;21006;-47
2021/04/11 18:15:40;;;;;;;54.30;45.20;;;20.90;42.20;;;;;;4758967;54;21519;-47
2021/04/11 18:22:30;;;;;;;50.75;42.05;;;20.90;42.20;;;;;;4717373;55;21085;-48
2021/04/11 18:27:43;;;;;;;51.80;41.42;;;20.90;42.20;;;;;;4732166;55;21536;-40
2021/04/11 18:33:11;;;;;;;51.72;42.55;;;20.90;42.20;;;;;;4737385;55;20998;-47
2021/04/11 18:38:50;;;;;;;54.65;43.75;;;20.90;42.20;;;;;;4744061;55;21497;-48
2021/04/11 18:54:41;;;;;;;55.53;43.95;;;20.90;42.20;;;;;;4730591;55;20986;-49
2021/04/11 19:00:21;;;;;;;54.10;42.45;;;20.90;42.20;;;;;;4714987;59;21599;-45
2021/04/11 19:07:03;;;;;;;55.88;44.13;;;20.90;42.30;;;;;;4732551;55;21539;-47
2021/04/11 19:16:00;;;;;;;54.78;44.47;;;20.90;42.30;;;;;;4739200;55;21539;-41
2021/04/11 19:27:43;;;;;;;55.50;44.75;;;20.90;42.30;;;;;;4755207;55;21018;-30
2021/04/11 19:33:35;;;;;;;51.75;42.28;;;20.90;42.30;;;;;;4732564;55;21502;-31
2021/04/11 19:42:26;;;;;;;50.72;41.72;;;20.90;42.20;;;;;;4718794;55;20990;-43
2021/04/11 19:50:26;;;;;;;55.83;46.80;;;20.90;42.40;;;;;;4740224;55;21014;-44
2021/04/11 19:58:11;;;;;;;51.78;41.78;;;20.90;42.30;;;;;;4736057;55;20998;-43
2021/04/11 20:06:29;;;;;;;54.07;44.10;;;20.90;42.30;;;;;;4762118;55;21085;-52
2021/04/11 20:15:20;;;;;;;53.03;42.95;;;20.90;42.30;;;;;;4729887;55;21089;-31
2021/04/11 20:20:47;;;;;;;53.58;42.08;;;20.90;42.30;;;;;;4751583;55;21034;-42
2021/04/11 20:25:54;;;;;;;;;;;20.90;42.30;;;;;;4746941;55;20998;-41
2021/04/11 20:31:25;;;;;;;51.53;41.60;;;20.90;42.30;;;;;;4716241;55;20065;-41
2021/04/11 20:41:16;;;;;;;51.80;42.70;;;20.90;42.40;;;;;;4729764;55;21007;-37
2021/04/11 20:49:39;;;;;;;53.87;43.70;;;20.90;42.30;;;;;;4721798;55;21010;-50
2021/04/11 20:57:53;;;;;;;54.28;42.72;;;20.90;42.30;;;;;;4722233;55;21614;-43
2021/04/11 21:03:10;;;;;;;54.55;43.00;;;20.90;42.30;;;;;;4746659;55;21028;-41
2021/04/11 21:08:51;;;;;;;55.70;41.00;;;20.90;42.30;;;;;;4738514;55;21041;-48
2021/04/11 21:16:02;;;;;;;53.22;42.42;;;20.90;42.40;;;;;;4717809;55;21034;-47
2021/04/11 21:21:40;;;;;;;54.00;42.33;;;20.90;42.30;;;;;;4782258;55;21038;-47
2021/04/11 21:29:33;;;;;;;55.50;43.58;;;20.90;42.30;;;;;;4765623;55;20998;-45
2021/04/11 21:35:25;;;;;;;53.67;41.67;;;20.90;42.30;;;;;;4726034;55;21030;-40
2021/04/11 21:40:31;;;;;;;52.53;41.22;;;20.90;42.30;;;;;;4766869;55;21055;-45
2021/04/11 21:46:06;;;;;;;55.67;44.28;;;20.90;42.30;;;;;;4739215;55;20991;-31
2021/04/11 21:51:37;;;;;;;54.35;42.10;;;20.90;42.30;;;;;;4726867;55;21062;-46
2021/04/11 21:57:15;;;;;;;51.25;39.95;;;20.90;42.30;;;;;;4715509;59;21215;-41
2021/04/11 22:02:43;;;;;;;53.50;41.60;;;20.90;42.30;;;;;;4729908;55;21041;-47
2021/04/11 22:08:19;;;;;;;53.45;42.83;;;20.90;42.30;;;;;;4716771;55;21417;-44
2021/04/11 22:16:21;;;;;;;54.35;43.13;;;20.90;42.30;;;;;;4724321;55;21112;-49
2021/04/11 22:21:27;;;;;;;51.70;41.17;;;20.90;42.30;;;;;;4721020;55;21081;-40
2021/04/11 22:26:40;;;;;;;52.15;41.63;;;20.90;42.40;;;;;;4727601;55;21007;-41
2021/04/11 22:32:14;;;;;;;53.90;43.00;;;20.90;42.30;;;;;;4750224;55;21010;-42
2021/04/11 22:37:21;;;;;;;51.15;41.85;;;20.90;42.30;;;;;;4745096;55;21057;-55
2021/04/11 22:42:44;;;;;;;54.47;42.83;;;20.90;42.30;;;;;;4737039;55;21026;-41
2021/04/11 22:48:41;;;;;;;52.92;41.80;;;20.90;42.30;;;;;;4763525;55;21078;-43
2021/04/11 22:53:58;;;;;;;51.75;40.35;;;20.90;42.30;;;;;;4736194;55;20978;-44
2021/04/11 22:59:16;;;;;;;54.83;42.17;;;20.90;42.30;;;;;;4729065;55;21034;-45
2021/04/11 23:04:25;;;;;;;;;;;20.90;42.30;;;;;;4723234;55;21045;-44
2021/04/11 23:09:34;;;;;;;53.90;42.45;;;20.90;42.30;;;;;;4722316;55;20068;-51
2021/04/11 23:15:09;;;;;;;53.63;41.88;;;20.90;42.30;;;;;;4759942;54;21619;-46
2021/04/11 23:20:35;;;;;;;53.72;41.60;;;20.90;42.30;;;;;;4730672;55;21098;-45
2021/04/11 23:25:45;;;;;;;52.33;40.30;;;20.90;42.30;;;;;;4746946;55;21895;-43
2021/04/11 23:32:25;;;;;;;51.05;40.85;;;20.90;42.30;;;;;;4721110;55;21089;-45
2021/04/11 23:38:58;;;;;;;53.20;41.97;;;20.80;42.30;;;;;;4723051;55;21073;-35
2021/04/11 23:44:21;;;;;;;50.78;41.05;;;20.80;42.30;;;;;;4728656;55;21038;-38
2021/04/11 23:49:32;;;;;;;52.97;41.20;;;20.80;42.20;;;;;;4740079;55;21050;-46
2021/04/11 23:54:59;;;;;;;50.67;41.22;;;20.80;42.20;;;;;;4742958;55;21093;-40
